sensor_id;sensor_type;location;lat;lon;timestamp;P1;durP1;ratioP1;P2;durP2;ratioP2
14381;SDS011;7275;50.328;8.720;2023-07-20T00:02:11;4.27;;;2.00;;
14381;SDS011;7275;50.328;8.720;2023-07-20T00:04:40;2.10;;;1.67;;
14381;SDS011;7275;50.328;8.720;2023-07-20T00:07:08;4.17;;;1.80;;
14381;SDS011;7275;50.328;8.720;2023-07-20T00:09:35;2.47;;;1.80;;
14381;SDS011;7275;50.328;8.720;2023-07-20T00:12:03;2.87;;;1.90;;
14381;SDS011;7275;50.328;8.720;2023-07-20T00:14:30;3.03;;;1.90;;
14381;SDS011;7275;50.328;8.720;2023-07-20T00:16:58;2.97;;;1.80;;
14381;SDS011;7275;50.328;8.720;2023-07-20T00:19:26;3.70;;;1.90;;
14381;SDS011;7275;50.328;8.720;2023-07-20T00:21:56;3.27;;;1.90;;
14381;SDS011;7275;50.328;8.720;2023-07-20T00:24:23;5.13;;;1.83;;
14381;SDS011;7275;50.328;8.720;2023-07-20T00:26:51;3.33;;;2.00;;
14381;SDS011;7275;50.328;8.720;2023-07-20T00:29:18;2.63;;;1.97;;
14381;SDS011;7275;50.328;8.720;2023-07-20T00:31:46;3.03;;;1.90;;
14381;SDS011;7275;50.328;8.720;2023-07-20T00:34:17;2.70;;;1.93;;
14381;SDS011;7275;50.328;8.720;2023-07-20T00:36:44;3.40;;;1.80;;
14381;SDS011;7275;50.328;8.720;2023-07-20T00:39:13;5.27;;;2.00;;
14381;SDS011;7275;50.328;8.720;2023-07-20T00:41:40;6.10;;;2.17;;
14381;SDS011;7275;50.328;8.720;2023-07-20T00:44:08;6.90;;;2.00;;
14381;SDS011;7275;50.328;8.720;2023-07-20T00:46:36;2.50;;;1.80;;
14381;SDS011;7275;50.328;8.720;2023-07-20T00:49:03;2.90;;;1.90;;
14381;SDS011;7275;50.328;8.720;2023-07-20T00:51:32;2.10;;;1.90;;
14381;SDS011;7275;50.328;8.720;2023-07-20T00:54:00;2.47;;;2.00;;
14381;SDS011;7275;50.328;8.720;2023-07-20T00:56:30;2.97;;;1.90;;
14381;SDS011;7275;50.328;8.720;2023-07-20T00:58:58;2.47;;;1.90;;
14381;SDS011;7275;50.328;8.720;2023-07-20T01:01:25;3.23;;;2.27;;
14381;SDS011;7275;50.328;8.720;2023-07-20T01:03:53;2.27;;;1.70;;
14381;SDS011;7275;50.328;8.720;2023-07-20T01:06:24;3.00;;;1.80;;
14381;SDS011;7275;50.328;8.720;2023-07-20T01:09:01;5.37;;;1.80;;
14381;SDS011;7275;50.328;8.720;2023-07-20T01:11:38;3.37;;;1.97;;
14381;SDS011;7275;50.328;8.720;2023-07-20T01:14:10;3.50;;;1.93;;
14381;SDS011;7275;50.328;8.720;2023-07-20T01:16:39;4.03;;;2.37;;
14381;SDS011;7275;50.328;8.720;2023-07-20T01:19:06;3.20;;;2.07;;
14381;SDS011;7275;50.328;8.720;2023-07-20T01:21:37;4.87;;;1.83;;
14381;SDS011;7275;50.328;8.720;2023-07-20T01:24:18;4.33;;;1.90;;
14381;SDS011;7275;50.328;8.720;2023-07-20T01:27:12;2.00;;;1.80;;
14381;SDS011;7275;50.328;8.720;2023-07-20T01:30:04;2.90;;;1.87;;
14381;SDS011;7275;50.328;8.720;2023-07-20T01:32:42;3.27;;;2.07;;
14381;SDS011;7275;50.328;8.720;2023-07-20T01:35:12;3.87;;;2.20;;
14381;SDS011;7275;50.328;8.720;2023-07-20T01:37:43;3.43;;;2.30;;
14381;SDS011;7275;50.328;8.720;2023-07-20T01:40:13;2.53;;;1.90;;
14381;SDS011;7275;50.328;8.720;2023-07-20T01:42:43;5.23;;;2.30;;
14381;SDS011;7275;50.328;8.720;2023-07-20T01:45:11;3.53;;;2.10;;
14381;SDS011;7275;50.328;8.720;2023-07-20T01:47:39;5.17;;;2.20;;
14381;SDS011;7275;50.328;8.720;2023-07-20T01:50:08;3.90;;;2.33;;
14381;SDS011;7275;50.328;8.720;2023-07-20T01:52:36;3.50;;;2.10;;
14381;SDS011;7275;50.328;8.720;2023-07-20T01:55:04;3.67;;;2.20;;
14381;SDS011;7275;50.328;8.720;2023-07-20T01:57:32;6.30;;;2.43;;
14381;SDS011;7275;50.328;8.720;2023-07-20T02:00:00;2.93;;;2.17;;
14381;SDS011;7275;50.328;8.720;2023-07-20T02:02:28;4.10;;;2.30;;
14381;SDS011;7275;50.328;8.720;2023-07-20T02:04:55;3.70;;;2.27;;
14381;SDS011;7275;50.328;8.720;2023-07-20T02:07:24;6.87;;;2.20;;
14381;SDS011;7275;50.328;8.720;2023-07-20T02:09:52;5.13;;;2.20;;
14381;SDS011;7275;50.328;8.720;2023-07-20T02:12:20;3.47;;;2.10;;
14381;SDS011;7275;50.328;8.720;2023-07-20T02:14:47;3.30;;;2.10;;
14381;SDS011;7275;50.328;8.720;2023-07-20T02:17:17;4.13;;;2.70;;
14381;SDS011;7275;50.328;8.720;2023-07-20T02:19:44;4.07;;;2.10;;
14381;SDS011;7275;50.328;8.720;2023-07-20T02:22:15;3.93;;;2.13;;
14381;SDS011;7275;50.328;8.720;2023-07-20T02:24:44;5.30;;;2.30;;
14381;SDS011;7275;50.328;8.720;2023-07-20T02:27:12;4.83;;;2.30;;
14381;SDS011;7275;50.328;8.720;2023-07-20T02:29:40;3.20;;;2.30;;
14381;SDS011;7275;50.328;8.720;2023-07-20T02:32:08;3.60;;;2.20;;
14381;SDS011;7275;50.328;8.720;2023-07-20T02:34:37;2.93;;;2.10;;
14381;SDS011;7275;50.328;8.720;2023-07-20T02:37:04;3.83;;;2.30;;
14381;SDS011;7275;50.328;8.720;2023-07-20T02:39:34;9.17;;;2.30;;
14381;SDS011;7275;50.328;8.720;2023-07-20T02:42:03;3.83;;;2.23;;
14381;SDS011;7275;50.328;8.720;2023-07-20T02:44:31;3.33;;;2.47;;
14381;SDS011;7275;50.328;8.720;2023-07-20T02:46:59;3.60;;;2.30;;
14381;SDS011;7275;50.328;8.720;2023-07-20T02:49:27;3.63;;;2.30;;
14381;SDS011;7275;50.328;8.720;2023-07-20T02:51:54;3.90;;;2.43;;
14381;SDS011;7275;50.328;8.720;2023-07-20T02:54:22;3.83;;;2.47;;
14381;SDS011;7275;50.328;8.720;2023-07-20T02:56:49;3.63;;;2.40;;
14381;SDS011;7275;50.328;8.720;2023-07-20T02:59:18;2.67;;;2.30;;
14381;SDS011;7275;50.328;8.720;2023-07-20T03:01:46;4.43;;;2.47;;
14381;SDS011;7275;50.328;8.720;2023-07-20T03:04:13;5.07;;;2.30;;
14381;SDS011;7275;50.328;8.720;2023-07-20T03:06:42;6.17;;;2.87;;
14381;SDS011;7275;50.328;8.720;2023-07-20T03:09:10;2.50;;;2.20;;
14381;SDS011;7275;50.328;8.720;2023-07-20T03:11:37;2.90;;;2.20;;
14381;SDS011;7275;50.328;8.720;2023-07-20T03:14:05;4.67;;;2.40;;
14381;SDS011;7275;50.328;8.720;2023-07-20T03:16:34;4.23;;;2.60;;
14381;SDS011;7275;50.328;8.720;2023-07-20T03:19:01;4.93;;;2.27;;
14381;SDS011;7275;50.328;8.720;2023-07-20T03:21:29;3.63;;;2.23;;
14381;SDS011;7275;50.328;8.720;2023-07-20T03:23:57;3.23;;;2.47;;
14381;SDS011;7275;50.328;8.720;2023-07-20T03:26:24;4.00;;;2.60;;
14381;SDS011;7275;50.328;8.720;2023-07-20T03:28:52;4.10;;;2.10;;
14381;SDS011;7275;50.328;8.720;2023-07-20T03:31:19;4.30;;;2.53;;
14381;SDS011;7275;50.328;8.720;2023-07-20T03:33:48;3.60;;;2.30;;
14381;SDS011;7275;50.328;8.720;2023-07-20T03:36:16;3.70;;;2.50;;
14381;SDS011;7275;50.328;8.720;2023-07-20T03:38:43;4.57;;;2.73;;
14381;SDS011;7275;50.328;8.720;2023-07-20T03:41:11;4.50;;;2.30;;
14381;SDS011;7275;50.328;8.720;2023-07-20T03:43:38;3.67;;;2.30;;
14381;SDS011;7275;50.328;8.720;2023-07-20T03:46:06;4.53;;;2.47;;
14381;SDS011;7275;50.328;8.720;2023-07-20T03:48:33;4.37;;;2.80;;
14381;SDS011;7275;50.328;8.720;2023-07-20T03:51:03;2.97;;;2.30;;
14381;SDS011;7275;50.328;8.720;2023-07-20T03:53:30;4.17;;;2.20;;
14381;SDS011;7275;50.328;8.720;2023-07-20T03:55:58;5.17;;;2.33;;
14381;SDS011;7275;50.328;8.720;2023-07-20T03:58:25;2.93;;;1.97;;
14381;SDS011;7275;50.328;8.720;2023-07-20T04:00:53;4.17;;;2.53;;
14381;SDS011;7275;50.328;8.720;2023-07-20T04:03:20;2.90;;;2.17;;
14381;SDS011;7275;50.328;8.720;2023-07-20T04:05:49;3.63;;;2.20;;
14381;SDS011;7275;50.328;8.720;2023-07-20T04:08:18;4.33;;;2.30;;
14381;SDS011;7275;50.328;8.720;2023-07-20T04:10:45;3.47;;;2.50;;
14381;SDS011;7275;50.328;8.720;2023-07-20T04:13:13;3.17;;;2.40;;
14381;SDS011;7275;50.328;8.720;2023-07-20T04:15:41;3.57;;;2.50;;
14381;SDS011;7275;50.328;8.720;2023-07-20T04:18:09;3.23;;;2.33;;
14381;SDS011;7275;50.328;8.720;2023-07-20T04:20:36;3.50;;;2.43;;
14381;SDS011;7275;50.328;8.720;2023-07-20T04:23:04;3.63;;;2.40;;
14381;SDS011;7275;50.328;8.720;2023-07-20T04:25:33;3.57;;;2.23;;
14381;SDS011;7275;50.328;8.720;2023-07-20T04:28:06;3.80;;;2.67;;
14381;SDS011;7275;50.328;8.720;2023-07-20T04:30:36;3.83;;;2.37;;
14381;SDS011;7275;50.328;8.720;2023-07-20T04:33:04;4.77;;;2.80;;
14381;SDS011;7275;50.328;8.720;2023-07-20T04:35:45;5.77;;;2.90;;
14381;SDS011;7275;50.328;8.720;2023-07-20T04:38:14;4.93;;;2.70;;
14381;SDS011;7275;50.328;8.720;2023-07-20T04:40:45;3.40;;;2.47;;
14381;SDS011;7275;50.328;8.720;2023-07-20T04:43:14;5.70;;;2.70;;
14381;SDS011;7275;50.328;8.720;2023-07-20T04:45:42;4.83;;;2.70;;
14381;SDS011;7275;50.328;8.720;2023-07-20T04:48:10;2.87;;;2.60;;
14381;SDS011;7275;50.328;8.720;2023-07-20T04:50:39;4.90;;;2.50;;
14381;SDS011;7275;50.328;8.720;2023-07-20T04:53:08;2.73;;;2.20;;
14381;SDS011;7275;50.328;8.720;2023-07-20T04:55:37;4.47;;;2.80;;
14381;SDS011;7275;50.328;8.720;2023-07-20T04:58:06;2.77;;;2.40;;
14381;SDS011;7275;50.328;8.720;2023-07-20T05:00:34;3.50;;;2.40;;
14381;SDS011;7275;50.328;8.720;2023-07-20T05:03:02;2.87;;;2.10;;
14381;SDS011;7275;50.328;8.720;2023-07-20T05:05:31;2.70;;;2.00;;
14381;SDS011;7275;50.328;8.720;2023-07-20T05:07:59;3.50;;;2.40;;
14381;SDS011;7275;50.328;8.720;2023-07-20T05:10:26;2.50;;;2.30;;
14381;SDS011;7275;50.328;8.720;2023-07-20T05:12:54;2.53;;;2.20;;
14381;SDS011;7275;50.328;8.720;2023-07-20T05:15:23;2.60;;;2.30;;
14381;SDS011;7275;50.328;8.720;2023-07-20T05:17:50;3.77;;;2.40;;
14381;SDS011;7275;50.328;8.720;2023-07-20T05:20:18;3.07;;;2.10;;
14381;SDS011;7275;50.328;8.720;2023-07-20T05:22:46;3.57;;;2.30;;
14381;SDS011;7275;50.328;8.720;2023-07-20T05:25:14;3.03;;;2.10;;
14381;SDS011;7275;50.328;8.720;2023-07-20T05:27:44;3.27;;;2.00;;
14381;SDS011;7275;50.328;8.720;2023-07-20T05:30:12;2.50;;;1.90;;
14381;SDS011;7275;50.328;8.720;2023-07-20T05:32:41;3.07;;;2.00;;
14381;SDS011;7275;50.328;8.720;2023-07-20T05:35:08;2.07;;;1.77;;
14381;SDS011;7275;50.328;8.720;2023-07-20T05:37:37;2.30;;;1.90;;
14381;SDS011;7275;50.328;8.720;2023-07-20T05:40:05;2.40;;;1.80;;
14381;SDS011;7275;50.328;8.720;2023-07-20T05:42:34;4.93;;;1.80;;
14381;SDS011;7275;50.328;8.720;2023-07-20T05:45:01;3.00;;;1.80;;
14381;SDS011;7275;50.328;8.720;2023-07-20T05:47:29;4.27;;;2.00;;
14381;SDS011;7275;50.328;8.720;2023-07-20T05:49:57;2.37;;;1.90;;
14381;SDS011;7275;50.328;8.720;2023-07-20T05:52:25;2.57;;;2.00;;
14381;SDS011;7275;50.328;8.720;2023-07-20T05:54:53;2.73;;;2.00;;
14381;SDS011;7275;50.328;8.720;2023-07-20T05:57:21;2.70;;;2.13;;
14381;SDS011;7275;50.328;8.720;2023-07-20T05:59:48;2.37;;;2.10;;
14381;SDS011;7275;50.328;8.720;2023-07-20T06:02:16;2.97;;;1.93;;
14381;SDS011;7275;50.328;8.720;2023-07-20T06:04:43;3.10;;;2.00;;
14381;SDS011;7275;50.328;8.720;2023-07-20T06:07:12;3.20;;;2.17;;
14381;SDS011;7275;50.328;8.720;2023-07-20T06:09:40;2.33;;;1.90;;
14381;SDS011;7275;50.328;8.720;2023-07-20T06:12:08;4.00;;;2.10;;
14381;SDS011;7275;50.328;8.720;2023-07-20T06:14:36;2.90;;;2.07;;
14381;SDS011;7275;50.328;8.720;2023-07-20T06:17:04;2.93;;;2.00;;
14381;SDS011;7275;50.328;8.720;2023-07-20T06:19:32;4.33;;;2.10;;
14381;SDS011;7275;50.328;8.720;2023-07-20T06:22:00;2.50;;;2.17;;
14381;SDS011;7275;50.328;8.720;2023-07-20T06:24:29;4.57;;;1.97;;
14381;SDS011;7275;50.328;8.720;2023-07-20T06:26:56;3.10;;;2.20;;
14381;SDS011;7275;50.328;8.720;2023-07-20T06:29:24;3.73;;;2.30;;
14381;SDS011;7275;50.328;8.720;2023-07-20T06:31:51;3.10;;;1.87;;
14381;SDS011;7275;50.328;8.720;2023-07-20T06:34:19;5.10;;;2.00;;
14381;SDS011;7275;50.328;8.720;2023-07-20T06:36:49;2.83;;;1.80;;
14381;SDS011;7275;50.328;8.720;2023-07-20T06:39:17;3.30;;;2.10;;
14381;SDS011;7275;50.328;8.720;2023-07-20T06:41:48;2.40;;;1.90;;
14381;SDS011;7275;50.328;8.720;2023-07-20T06:44:19;3.43;;;2.00;;
14381;SDS011;7275;50.328;8.720;2023-07-20T06:46:47;2.83;;;1.90;;
14381;SDS011;7275;50.328;8.720;2023-07-20T06:49:23;3.87;;;1.80;;
14381;SDS011;7275;50.328;8.720;2023-07-20T06:51:52;2.77;;;1.93;;
14381;SDS011;7275;50.328;8.720;2023-07-20T06:54:19;3.70;;;2.20;;
14381;SDS011;7275;50.328;8.720;2023-07-20T06:56:50;4.23;;;2.60;;
14381;SDS011;7275;50.328;8.720;2023-07-20T06:59:21;3.83;;;2.60;;
14381;SDS011;7275;50.328;8.720;2023-07-20T07:01:50;4.00;;;2.60;;
14381;SDS011;7275;50.328;8.720;2023-07-20T07:04:17;3.93;;;2.50;;
14381;SDS011;7275;50.328;8.720;2023-07-20T07:06:45;4.07;;;2.50;;
14381;SDS011;7275;50.328;8.720;2023-07-20T07:09:13;3.43;;;2.70;;
14381;SDS011;7275;50.328;8.720;2023-07-20T07:11:40;4.43;;;2.70;;
14381;SDS011;7275;50.328;8.720;2023-07-20T07:14:09;4.03;;;2.80;;
14381;SDS011;7275;50.328;8.720;2023-07-20T07:16:36;3.60;;;2.60;;
14381;SDS011;7275;50.328;8.720;2023-07-20T07:19:05;3.57;;;2.43;;
14381;SDS011;7275;50.328;8.720;2023-07-20T07:21:33;3.87;;;2.67;;
14381;SDS011;7275;50.328;8.720;2023-07-20T07:24:01;4.65;;;2.85;;
14381;SDS011;7275;50.328;8.720;2023-07-20T07:26:29;2.85;;;2.30;;
14381;SDS011;7275;50.328;8.720;2023-07-20T07:28:57;3.70;;;2.30;;
14381;SDS011;7275;50.328;8.720;2023-07-20T07:31:26;3.80;;;2.57;;
14381;SDS011;7275;50.328;8.720;2023-07-20T07:33:55;3.33;;;2.33;;
14381;SDS011;7275;50.328;8.720;2023-07-20T07:36:23;3.05;;;2.33;;
14381;SDS011;7275;50.328;8.720;2023-07-20T07:38:51;4.35;;;2.53;;
14381;SDS011;7275;50.328;8.720;2023-07-20T07:41:21;4.53;;;2.60;;
14381;SDS011;7275;50.328;8.720;2023-07-20T07:43:49;4.15;;;2.70;;
14381;SDS011;7275;50.328;8.720;2023-07-20T07:46:17;2.97;;;2.40;;
14381;SDS011;7275;50.328;8.720;2023-07-20T07:48:45;4.82;;;2.70;;
14381;SDS011;7275;50.328;8.720;2023-07-20T07:51:13;3.70;;;2.40;;
14381;SDS011;7275;50.328;8.720;2023-07-20T07:53:41;3.55;;;2.40;;
14381;SDS011;7275;50.328;8.720;2023-07-20T07:56:09;4.45;;;2.47;;
14381;SDS011;7275;50.328;8.720;2023-07-20T07:58:37;3.78;;;2.60;;
14381;SDS011;7275;50.328;8.720;2023-07-20T08:01:05;2.83;;;2.17;;
14381;SDS011;7275;50.328;8.720;2023-07-20T08:03:32;2.83;;;2.07;;
14381;SDS011;7275;50.328;8.720;2023-07-20T08:06:03;3.25;;;2.22;;
14381;SDS011;7275;50.328;8.720;2023-07-20T08:08:31;2.50;;;2.20;;
14381;SDS011;7275;50.328;8.720;2023-07-20T08:10:59;2.42;;;2.17;;
14381;SDS011;7275;50.328;8.720;2023-07-20T08:13:32;2.80;;;2.30;;
14381;SDS011;7275;50.328;8.720;2023-07-20T08:16:01;2.95;;;2.30;;
14381;SDS011;7275;50.328;8.720;2023-07-20T08:18:29;4.03;;;2.30;;
14381;SDS011;7275;50.328;8.720;2023-07-20T08:20:57;3.85;;;2.40;;
14381;SDS011;7275;50.328;8.720;2023-07-20T08:23:26;2.90;;;2.15;;
14381;SDS011;7275;50.328;8.720;2023-07-20T08:25:54;2.58;;;2.08;;
14381;SDS011;7275;50.328;8.720;2023-07-20T08:28:21;2.42;;;2.22;;
14381;SDS011;7275;50.328;8.720;2023-07-20T08:30:49;3.45;;;2.35;;
14381;SDS011;7275;50.328;8.720;2023-07-20T08:33:17;2.88;;;2.47;;
14381;SDS011;7275;50.328;8.720;2023-07-20T08:35:46;3.15;;;2.45;;
14381;SDS011;7275;50.328;8.720;2023-07-20T08:38:14;2.50;;;2.30;;
14381;SDS011;7275;50.328;8.720;2023-07-20T08:40:43;3.55;;;2.50;;
14381;SDS011;7275;50.328;8.720;2023-07-20T08:43:12;4.30;;;2.55;;
14381;SDS011;7275;50.328;8.720;2023-07-20T08:45:42;3.38;;;2.60;;
14381;SDS011;7275;50.328;8.720;2023-07-20T08:48:12;3.78;;;2.50;;
14381;SDS011;7275;50.328;8.720;2023-07-20T08:50:40;4.45;;;2.60;;
14381;SDS011;7275;50.328;8.720;2023-07-20T08:53:08;3.03;;;2.72;;
14381;SDS011;7275;50.328;8.720;2023-07-20T08:55:37;3.92;;;2.78;;
14381;SDS011;7275;50.328;8.720;2023-07-20T08:58:08;5.53;;;2.55;;
14381;SDS011;7275;50.328;8.720;2023-07-20T09:00:38;3.67;;;2.45;;
14381;SDS011;7275;50.328;8.720;2023-07-20T09:03:10;3.20;;;2.30;;
14381;SDS011;7275;50.328;8.720;2023-07-20T09:05:39;2.40;;;2.20;;
14381;SDS011;7275;50.328;8.720;2023-07-20T09:08:07;3.05;;;2.42;;
14381;SDS011;7275;50.328;8.720;2023-07-20T09:10:34;2.72;;;2.20;;
14381;SDS011;7275;50.328;8.720;2023-07-20T09:13:02;3.42;;;2.30;;
14381;SDS011;7275;50.328;8.720;2023-07-20T09:15:31;3.60;;;2.20;;
14381;SDS011;7275;50.328;8.720;2023-07-20T09:18:00;3.53;;;2.20;;
14381;SDS011;7275;50.328;8.720;2023-07-20T09:20:30;3.72;;;2.10;;
14381;SDS011;7275;50.328;8.720;2023-07-20T09:22:59;2.00;;;1.80;;
14381;SDS011;7275;50.328;8.720;2023-07-20T09:25:31;2.47;;;1.88;;
14381;SDS011;7275;50.328;8.720;2023-07-20T09:28:02;3.92;;;2.08;;
14381;SDS011;7275;50.328;8.720;2023-07-20T09:30:32;3.05;;;1.88;;
14381;SDS011;7275;50.328;8.720;2023-07-20T09:33:00;4.20;;;2.35;;
14381;SDS011;7275;50.328;8.720;2023-07-20T09:35:28;3.03;;;2.00;;
14381;SDS011;7275;50.328;8.720;2023-07-20T09:38:08;2.10;;;1.70;;
14381;SDS011;7275;50.328;8.720;2023-07-20T09:40:39;2.05;;;1.55;;
14381;SDS011;7275;50.328;8.720;2023-07-20T09:43:10;2.42;;;1.73;;
14381;SDS011;7275;50.328;8.720;2023-07-20T09:45:42;2.40;;;1.70;;
14381;SDS011;7275;50.328;8.720;2023-07-20T09:48:13;1.98;;;1.70;;
14381;SDS011;7275;50.328;8.720;2023-07-20T09:50:49;2.10;;;1.90;;
14381;SDS011;7275;50.328;8.720;2023-07-20T09:53:18;3.67;;;2.05;;
14381;SDS011;7275;50.328;8.720;2023-07-20T09:55:47;2.75;;;1.90;;
14381;SDS011;7275;50.328;8.720;2023-07-20T09:58:15;4.28;;;2.17;;
14381;SDS011;7275;50.328;8.720;2023-07-20T10:00:45;2.67;;;2.00;;
14381;SDS011;7275;50.328;8.720;2023-07-20T10:03:19;3.28;;;1.70;;
14381;SDS011;7275;50.328;8.720;2023-07-20T10:05:51;2.28;;;2.03;;
14381;SDS011;7275;50.328;8.720;2023-07-20T10:08:23;3.55;;;1.90;;
14381;SDS011;7275;50.328;8.720;2023-07-20T10:10:54;5.28;;;2.20;;
14381;SDS011;7275;50.328;8.720;2023-07-20T10:13:25;4.68;;;1.95;;
14381;SDS011;7275;50.328;8.720;2023-07-20T10:15:57;2.95;;;2.00;;
14381;SDS011;7275;50.328;8.720;2023-07-20T10:18:30;4.47;;;1.98;;
14381;SDS011;7275;50.328;8.720;2023-07-20T10:21:03;3.20;;;1.80;;
14381;SDS011;7275;50.328;8.720;2023-07-20T10:23:36;2.88;;;1.60;;
14381;SDS011;7275;50.328;8.720;2023-07-20T10:26:06;1.70;;;1.40;;
14381;SDS011;7275;50.328;8.720;2023-07-20T10:28:34;3.50;;;1.63;;
14381;SDS011;7275;50.328;8.720;2023-07-20T10:31:04;2.00;;;1.77;;
14381;SDS011;7275;50.328;8.720;2023-07-20T10:33:34;1.70;;;1.50;;
14381;SDS011;7275;50.328;8.720;2023-07-20T10:36:03;2.10;;;1.60;;
14381;SDS011;7275;50.328;8.720;2023-07-20T10:38:38;3.55;;;1.58;;
14381;SDS011;7275;50.328;8.720;2023-07-20T10:41:15;2.45;;;1.50;;
14381;SDS011;7275;50.328;8.720;2023-07-20T10:43:46;2.50;;;1.58;;
14381;SDS011;7275;50.328;8.720;2023-07-20T10:46:16;2.30;;;1.48;;
14381;SDS011;7275;50.328;8.720;2023-07-20T10:49:01;2.03;;;1.38;;
14381;SDS011;7275;50.328;8.720;2023-07-20T10:51:30;1.67;;;1.40;;
14381;SDS011;7275;50.328;8.720;2023-07-20T10:54:07;1.65;;;1.25;;
14381;SDS011;7275;50.328;8.720;2023-07-20T10:56:35;5.00;;;1.42;;
14381;SDS011;7275;50.328;8.720;2023-07-20T10:59:17;2.38;;;1.40;;
14381;SDS011;7275;50.328;8.720;2023-07-20T11:01:47;1.55;;;1.20;;
14381;SDS011;7275;50.328;8.720;2023-07-20T11:04:16;2.42;;;1.38;;
14381;SDS011;7275;50.328;8.720;2023-07-20T11:06:44;4.25;;;1.42;;
14381;SDS011;7275;50.328;8.720;2023-07-20T11:09:13;1.77;;;1.55;;
14381;SDS011;7275;50.328;8.720;2023-07-20T11:11:42;1.77;;;1.42;;
14381;SDS011;7275;50.328;8.720;2023-07-20T11:14:14;3.70;;;1.55;;
14381;SDS011;7275;50.328;8.720;2023-07-20T11:16:49;3.25;;;1.30;;
14381;SDS011;7275;50.328;8.720;2023-07-20T11:19:19;1.80;;;1.40;;
14381;SDS011;7275;50.328;8.720;2023-07-20T11:21:53;1.65;;;1.20;;
14381;SDS011;7275;50.328;8.720;2023-07-20T11:24:29;1.40;;;1.13;;
14381;SDS011;7275;50.328;8.720;2023-07-20T11:26:58;1.20;;;1.10;;
14381;SDS011;7275;50.328;8.720;2023-07-20T11:29:26;2.08;;;1.10;;
14381;SDS011;7275;50.328;8.720;2023-07-20T11:32:00;1.88;;;1.30;;
14381;SDS011;7275;50.328;8.720;2023-07-20T11:34:32;1.55;;;1.10;;
14381;SDS011;7275;50.328;8.720;2023-07-20T11:37:01;1.20;;;1.10;;
14381;SDS011;7275;50.328;8.720;2023-07-20T11:39:32;1.30;;;1.00;;
14381;SDS011;7275;50.328;8.720;2023-07-20T11:42:00;2.20;;;1.20;;
14381;SDS011;7275;50.328;8.720;2023-07-20T11:44:28;1.20;;;1.10;;
14381;SDS011;7275;50.328;8.720;2023-07-20T11:47:01;1.52;;;1.00;;
14381;SDS011;7275;50.328;8.720;2023-07-20T11:49:34;1.55;;;1.40;;
14381;SDS011;7275;50.328;8.720;2023-07-20T11:52:03;2.50;;;1.20;;
14381;SDS011;7275;50.328;8.720;2023-07-20T11:54:31;2.22;;;1.30;;
14381;SDS011;7275;50.328;8.720;2023-07-20T11:57:00;1.10;;;1.00;;
14381;SDS011;7275;50.328;8.720;2023-07-20T11:59:28;3.17;;;1.20;;
14381;SDS011;7275;50.328;8.720;2023-07-20T12:01:58;1.33;;;1.20;;
14381;SDS011;7275;50.328;8.720;2023-07-20T12:04:27;1.77;;;1.25;;
14381;SDS011;7275;50.328;8.720;2023-07-20T12:06:54;1.33;;;1.23;;
14381;SDS011;7275;50.328;8.720;2023-07-20T12:09:22;2.17;;;1.25;;
14381;SDS011;7275;50.328;8.720;2023-07-20T12:11:55;4.57;;;1.40;;
14381;SDS011;7275;50.328;8.720;2023-07-20T12:14:25;1.67;;;1.17;;
14381;SDS011;7275;50.328;8.720;2023-07-20T12:16:53;1.63;;;1.30;;
14381;SDS011;7275;50.328;8.720;2023-07-20T12:19:24;1.35;;;1.00;;
14381;SDS011;7275;50.328;8.720;2023-07-20T12:21:56;1.30;;;1.00;;
14381;SDS011;7275;50.328;8.720;2023-07-20T12:24:25;1.30;;;1.20;;
14381;SDS011;7275;50.328;8.720;2023-07-20T12:26:55;1.27;;;1.17;;
14381;SDS011;7275;50.328;8.720;2023-07-20T12:29:24;1.98;;;1.20;;
14381;SDS011;7275;50.328;8.720;2023-07-20T12:31:52;1.45;;;1.10;;
14381;SDS011;7275;50.328;8.720;2023-07-20T12:34:20;1.83;;;1.15;;
14381;SDS011;7275;50.328;8.720;2023-07-20T12:36:49;1.50;;;1.15;;
14381;SDS011;7275;50.328;8.720;2023-07-20T12:39:16;1.10;;;1.00;;
14381;SDS011;7275;50.328;8.720;2023-07-20T12:41:44;1.05;;;0.95;;
14381;SDS011;7275;50.328;8.720;2023-07-20T12:44:12;4.18;;;1.30;;
14381;SDS011;7275;50.328;8.720;2023-07-20T12:46:40;2.85;;;1.15;;
14381;SDS011;7275;50.328;8.720;2023-07-20T12:49:08;1.15;;;1.05;;
14381;SDS011;7275;50.328;8.720;2023-07-20T12:51:36;1.85;;;1.00;;
14381;SDS011;7275;50.328;8.720;2023-07-20T12:54:04;1.77;;;1.00;;
14381;SDS011;7275;50.328;8.720;2023-07-20T12:56:32;1.27;;;1.17;;
14381;SDS011;7275;50.328;8.720;2023-07-20T12:59:03;1.10;;;0.98;;
14381;SDS011;7275;50.328;8.720;2023-07-20T13:01:31;1.10;;;1.00;;
14381;SDS011;7275;50.328;8.720;2023-07-20T13:03:59;1.42;;;0.90;;
14381;SDS011;7275;50.328;8.720;2023-07-20T13:06:29;1.10;;;1.00;;
14381;SDS011;7275;50.328;8.720;2023-07-20T13:08:57;1.35;;;1.00;;
14381;SDS011;7275;50.328;8.720;2023-07-20T13:11:26;1.55;;;1.27;;
14381;SDS011;7275;50.328;8.720;2023-07-20T13:13:53;1.35;;;1.00;;
14381;SDS011;7275;50.328;8.720;2023-07-20T13:16:21;2.38;;;1.05;;
14381;SDS011;7275;50.328;8.720;2023-07-20T13:18:49;2.45;;;0.98;;
14381;SDS011;7275;50.328;8.720;2023-07-20T13:21:16;1.77;;;0.93;;
14381;SDS011;7275;50.328;8.720;2023-07-20T13:23:50;1.20;;;1.10;;
14381;SDS011;7275;50.328;8.720;2023-07-20T13:26:17;4.53;;;1.10;;
14381;SDS011;7275;50.328;8.720;2023-07-20T13:28:46;1.45;;;1.00;;
14381;SDS011;7275;50.328;8.720;2023-07-20T13:31:14;1.30;;;1.20;;
14381;SDS011;7275;50.328;8.720;2023-07-20T13:33:43;1.65;;;1.10;;
14381;SDS011;7275;50.328;8.720;2023-07-20T13:36:22;1.90;;;1.02;;
14381;SDS011;7275;50.328;8.720;2023-07-20T13:38:50;1.15;;;1.00;;
14381;SDS011;7275;50.328;8.720;2023-07-20T13:41:18;2.67;;;1.10;;
14381;SDS011;7275;50.328;8.720;2023-07-20T13:43:47;1.25;;;1.00;;
14381;SDS011;7275;50.328;8.720;2023-07-20T13:46:15;1.60;;;0.90;;
14381;SDS011;7275;50.328;8.720;2023-07-20T13:49:02;1.58;;;1.13;;
14381;SDS011;7275;50.328;8.720;2023-07-20T13:51:36;2.10;;;0.90;;
14381;SDS011;7275;50.328;8.720;2023-07-20T13:54:04;1.48;;;1.08;;
14381;SDS011;7275;50.328;8.720;2023-07-20T13:56:35;0.90;;;0.90;;
14381;SDS011;7275;50.328;8.720;2023-07-20T13:59:04;1.10;;;1.00;;
14381;SDS011;7275;50.328;8.720;2023-07-20T14:01:32;0.85;;;0.85;;
14381;SDS011;7275;50.328;8.720;2023-07-20T14:04:03;1.92;;;1.20;;
14381;SDS011;7275;50.328;8.720;2023-07-20T14:06:31;1.13;;;1.02;;
14381;SDS011;7275;50.328;8.720;2023-07-20T14:09:00;0.93;;;0.90;;
14381;SDS011;7275;50.328;8.720;2023-07-20T14:11:27;1.10;;;1.00;;
14381;SDS011;7275;50.328;8.720;2023-07-20T14:13:58;1.20;;;1.10;;
14381;SDS011;7275;50.328;8.720;2023-07-20T14:16:27;2.05;;;1.00;;
14381;SDS011;7275;50.328;8.720;2023-07-20T14:18:57;1.55;;;1.00;;
14381;SDS011;7275;50.328;8.720;2023-07-20T14:21:25;1.02;;;0.93;;
14381;SDS011;7275;50.328;8.720;2023-07-20T14:23:53;1.60;;;1.10;;
14381;SDS011;7275;50.328;8.720;2023-07-20T14:26:21;1.10;;;1.00;;
14381;SDS011;7275;50.328;8.720;2023-07-20T14:28:49;1.88;;;1.05;;
14381;SDS011;7275;50.328;8.720;2023-07-20T14:31:16;2.47;;;1.00;;
14381;SDS011;7275;50.328;8.720;2023-07-20T14:33:46;2.35;;;1.15;;
14381;SDS011;7275;50.328;8.720;2023-07-20T14:36:14;2.70;;;1.00;;
14381;SDS011;7275;50.328;8.720;2023-07-20T14:38:41;2.00;;;1.13;;
14381;SDS011;7275;50.328;8.720;2023-07-20T14:41:09;1.42;;;1.08;;
14381;SDS011;7275;50.328;8.720;2023-07-20T14:43:38;1.30;;;1.00;;
14381;SDS011;7275;50.328;8.720;2023-07-20T14:46:05;4.03;;;1.10;;
14381;SDS011;7275;50.328;8.720;2023-07-20T14:48:33;2.17;;;1.00;;
14381;SDS011;7275;50.328;8.720;2023-07-20T14:51:02;1.42;;;1.10;;
14381;SDS011;7275;50.328;8.720;2023-07-20T14:53:31;1.10;;;1.00;;
14381;SDS011;7275;50.328;8.720;2023-07-20T14:56:02;1.65;;;1.13;;
14381;SDS011;7275;50.328;8.720;2023-07-20T14:58:31;3.10;;;1.10;;
14381;SDS011;7275;50.328;8.720;2023-07-20T15:01:01;1.92;;;1.20;;
14381;SDS011;7275;50.328;8.720;2023-07-20T15:03:29;1.45;;;1.20;;
14381;SDS011;7275;50.328;8.720;2023-07-20T15:05:57;2.53;;;1.38;;
14381;SDS011;7275;50.328;8.720;2023-07-20T15:08:26;1.10;;;1.00;;
14381;SDS011;7275;50.328;8.720;2023-07-20T15:10:54;1.38;;;1.05;;
14381;SDS011;7275;50.328;8.720;2023-07-20T15:13:22;1.98;;;1.20;;